CheckWX is a tool to help pilots better visualize weather data.  It is not intended as a substitute for an official pre-flight weather briefing.

18:09:18 UTC

KEWK METAR
Newton-City-County Airport
Newton, Kansas, USA
Current

13 mins ago

KEWK 091756Z AUTO 19010KT 10SM CLR 27/19 A2990 RMK AO2 SLP108 60003 T02670194 10267 20178 51034
Observed
Jul-9 @ 17:56 UTC
Wind
  • 190° at 10 KTS
Visibility
10 SM
Flight Rules
VFR
Cloud Levels
  • Clear skies
Temperature
27°C / 81°F
Dewpoint
19°C / 66°F
Humidity
62%
Altimeter
29.9" Hg
Pressure
1012.52 hPa
Previous

1 hour ago

KEWK 091656Z AUTO 01006KT 10SM CLR 24/19 A2990 RMK AO2 TSE24 SLP107 T02390189
Observed
Jul-9 @ 16:56 UTC
Wind
  • 010° at 6 KTS
Visibility
10 SM
Flight Rules
VFR
Cloud Levels
  • Clear skies
Temperature
24°C / 75°F
Dewpoint
19°C / 66°F
Humidity
74%
Altimeter
29.9" Hg
Pressure
1012.52 hPa
Previous

2 hours ago

KEWK 091630Z AUTO 17012G19KT 10SM FEW100 22/18 A2984 RMK AO2 LTG DSNT SE TSE24
Observed
Jul-9 @ 16:30 UTC
Wind
  • 170° at 12 KTS
  • Gusting to 19 KTS
Visibility
10 SM
Flight Rules
VFR
Cloud Levels
  • Few at 10,000' AGL
Temperature
22°C / 72°F
Dewpoint
18°C / 64°F
Humidity
78%
Altimeter
29.84" Hg
Pressure
1010.52 hPa